Saturday, April 30, 2016
03:21 UTC
  |  Log In   |  Register Free
Airport Search:

Indiana County/Jimmy Stewart Fld/ Airport
(KIDI)

Indiana County/Jimmy Stewart Fld/ Airport Diagram
No Airport Diagram Available

FAA data valid effective Mar 31 2016 - May 26 2016 (unless otherwise noted).

 
 
 
 
 
 
 
 
 
 
 
 
 
 
Current Aviation Weather for KIDI

Weather Summary


The most recent METAR observation for IDI was updated at: 12:55 UTC
METAR for KIDI is not available. Closest METAR is for KJST
KIDI  (most recent observation was updatred at 30:03 UTC)
300315Z AUTO 00000KT 10SM OVC020 10/09 A3014 RMK A01

KJST  (22.7 nm NW)   (most recent observation was updated at 30:02 UTC)
300254Z AUTO 33005KT 9SM BKN006 OVC010 09/06 A3008 RMK AO2 CIG004V008 SLP193 60000 T00890056 51014

KLBE  (25.5 nm NE)   (most recent observation was updated at 30:03 UTC)
300315Z AUTO 00000KT 10SM OVC016 10/10 A3011 RMK AO2

TAF for KIDI is not available.
KJST  (22.7 nm NW)   (most recent observation was updatred at 29:23 UTC)
292335Z 3000/3024 31010KT P6SM -SHRA SCT006 OVC015 TEMPO 3000/3002 2SM BR OVC006 FM300200 VRB03KT 1SM -DZ BR OVC003 FM300400 VRB03KT 1/4SM FG OVC001 FM301500 14007KT P6SM OVC003


KLBE  (25.5 nm NE)   (most recent observation was updatred at 30:02 UTC)
AMD 300219Z 3002/3024 VRB03KT P6SM BKN015 FM301400 12006KT P6SM BKN150 FM302200 13007KT 3SM -RA OVC040


KDUJ  (34.1 nm SW)   (most recent observation was updatred at 30:02 UTC)
AMD 300222Z 3002/3024 34003KT P6SM BKN006 FM301200 VRB03KT P6SM BKN015 FM301600 12006KT P6SM BKN040 FM302300 12006KT 5SM -RA OVC035
GlobalAir.com is loading additional information.
 Current Weather at IDI
50.0 F° (10.0 C°)

North winds at 0.0 mph
Pressure:
30.12 in
Humidity:
94%
Wind:
North at 0.0 mph
Dew Point:
48.2 F° (9.0 C°)
Visibility:
10.00 mi
IDI NOAA Radar




Find All Airport Services Find A Hotel Find A Rental Car Find A Golf Course Find A Restaurant $100 Hamburger



Airport Weather Forecast for KIDI

Translated METAR for KIDI (0315 UTC)
METAR:
KIDI 300315Z AUTO 00000KT 10SM OVC020 10/09 A3014 RMK A01
Conditions at:
KIDI (Indiana County/Jimmy Stewart Fld/, PA) observed 0315 UTC 29 April 2016
Temperature:
10°C (50°F)
Dewpoint:
9°C (48.2°F) [RH = 93.5]
Pressure:
30.14 inches Hg (1020.7 mb)
Winds:
from the N (000 degrees) at 0 mph (0 knots: 0 m/s)
Visibility:
10 mile(s)
Ceiling:
2,000 feet AGL
Clouds:
Overcast Skies at 2,000 feet AGL
Remarks:
site is un-manned

Translated TAF for KJST (John Murtha Johnstown-Cambria Co, PA) (2335 UTC)
TAF text:
KJST 292335Z 3000/3024 31010KT P6SM -SHRA SCT006 OVC015
Forecast period:
Saturday Apr 30 2016 00:00 UTC - Saturday Apr 30 2016 24:00 UTC
Forecast type:
FROM: standard forecast or significant change
Winds:
from the NW (310 degrees) at 11.5 mph (10 knots: 5.1 m/s)
Visibility:
6 or more mile(s) (9.7+ km)
Ceiling:
1,500 feet AGL
Clouds:
Scattered Clouds at 600 feet AGL
Overcast Skies at 1,500 feet AGL
Weather:
Light Shower(s) Rain
TAF text:
3000/3002 2SM BR OVC006
Forecast period:
Sunday May 01 2016 00:00 UTC - Sunday May 01 2016 02:00 UTC
Forecast type:
FROM: standard forecast or significant change
Winds:
Visibility:
2 mile(s) (3.2 km)
Ceiling:
600 feet AGL
Clouds:
Overcast Skies at 600 feet AGL
Weather:
Moderate Mist
TAF text:
FM300200 VRB03KT 1SM -DZ BR OVC003
Forecast period:
Saturday Apr 30 2016 02:00 UTC - Saturday Apr 30 2016 04:00 UTC
Forecast type:
FROM: standard forecast or significant change
Winds:
variable wind direction at 3.5 mph (3 knots: 1.5 m/s)
Visibility:
1 mile(s) (1.6 km)
Ceiling:
300 feet AGL
Clouds:
Overcast Skies at 300 feet AGL
Weather:
Light Drizzle
TAF text:
FM300400 VRB03KT 1/4SM FG OVC001
Forecast period:
Saturday Apr 30 2016 04:00 UTC - Saturday Apr 30 2016 15:00 UTC
Forecast type:
FROM: standard forecast or significant change
Winds:
variable wind direction at 3.5 mph (3 knots: 1.5 m/s)
Visibility:
0.25 mile(s) (0.4 km)
Ceiling:
100 feet AGL
Clouds:
Overcast Skies at 100 feet AGL
Weather:
Moderate Fog
TAF text:
FM301500 14007KT P6SM OVC003
Forecast period:
Saturday Apr 30 2016 15:00 UTC - Saturday Apr 30 2016 24:00 UTC
Forecast type:
FROM: standard forecast or significant change
Winds:
from the SE (140 degrees) at 8.1 mph (7 knots: 3.6 m/s)
Visibility:
6 or more mile(s) (9.7+ km)
Ceiling:
300 feet AGL
Clouds:
Overcast Skies at 300 feet AGL
Weather:
no significant weather observed at this time
FBO's on the Field
FBO Company Facility Photos Services Transportation Aviation Fuel Prices: Prices include tax
Catering Weather Repair Courtesy Rental Type 100LL JetA JetA+ MOGAS 8087
 
Indiana County Jimmy Stewart Airport

Currently rated 5 by 1 person
FS:Phillips 66
Last Updated: Apr-27
Login to update fuel prices
SS:
Contact Indiana County Jimmy Stewart AirportMore FBO Information
 
Add another FBO Facility Photos Catering Weather Repair Courtesy Rental Type 100LL JetA JetA+ MOGAS 8087
Services Transportation Aviation Fuel Prices: Prices include tax


model-print
model-print
model-print
model-print